createdAt,value
2022-08-07T00:00:57.784Z,6.80
2022-08-07T00:02:36.095Z,6.90
2022-08-07T00:02:57.787Z,6.80
2022-08-07T00:03:57.788Z,6.30
2022-08-07T00:04:57.850Z,6.50
2022-08-07T00:05:57.788Z,6.40
2022-08-07T00:07:01.264Z,6.00
2022-08-07T00:07:59.707Z,6.00
2022-08-07T00:08:57.792Z,6.10
2022-08-07T00:10:19.359Z,6.30
2022-08-07T00:10:58.307Z,5.90
2022-08-07T00:11:58.904Z,6.00
2022-08-07T00:13:01.087Z,6.10
2022-08-07T00:13:57.805Z,6.10
2022-08-07T00:14:57.802Z,6.00
2022-08-07T00:15:57.804Z,6.30
2022-08-07T00:16:57.810Z,6.00
2022-08-07T00:17:57.806Z,6.10
2022-08-07T00:18:57.804Z,6.30
2022-08-07T00:20:01.218Z,6.10
2022-08-07T00:21:01.766Z,6.10
2022-08-07T00:22:02.090Z,6.40
2022-08-07T00:22:57.811Z,5.90
2022-08-07T00:23:57.812Z,6.10
2022-08-07T00:24:57.811Z,6.00
2022-08-07T00:25:59.196Z,6.20
2022-08-07T00:27:06.758Z,6.40
2022-08-07T00:27:57.821Z,6.30
2022-08-07T00:28:57.823Z,6.10
2022-08-07T00:29:57.820Z,6.50
2022-08-07T00:30:57.821Z,6.40
2022-08-07T00:31:57.823Z,6.80
2022-08-07T00:32:58.090Z,6.60
2022-08-07T00:33:57.826Z,6.70
2022-08-07T00:34:57.827Z,6.90
2022-08-07T00:35:57.827Z,7.00
2022-08-07T00:36:57.830Z,6.70
2022-08-07T00:37:57.836Z,7.00
2022-08-07T00:38:57.867Z,6.50
2022-08-07T00:39:57.866Z,7.10
2022-08-07T00:40:57.836Z,6.50
2022-08-07T00:42:01.345Z,6.70
2022-08-07T00:42:57.839Z,6.80
2022-08-07T00:44:00.854Z,6.80
2022-08-07T00:44:57.838Z,7.00
2022-08-07T00:45:57.846Z,6.90
2022-08-07T00:46:57.846Z,7.00
2022-08-07T00:48:07.951Z,7.10
2022-08-07T00:48:57.845Z,7.20
2022-08-07T00:50:19.370Z,6.80
2022-08-07T00:50:57.846Z,7.10
2022-08-07T00:51:58.684Z,6.70
2022-08-07T00:52:57.848Z,6.90
2022-08-07T00:53:57.851Z,6.50
2022-08-07T00:54:57.852Z,6.60
2022-08-07T00:56:02.631Z,6.90
2022-08-07T00:56:57.858Z,6.70
2022-08-07T00:57:57.852Z,6.60
2022-08-07T00:58:57.857Z,6.20
2022-08-07T00:59:57.857Z,6.90
2022-08-07T01:00:57.865Z,6.70
2022-08-07T01:01:58.045Z,6.80
2022-08-07T01:02:57.859Z,6.70
2022-08-07T01:04:00.271Z,6.60
2022-08-07T01:04:58.659Z,6.80
2022-08-07T01:05:57.864Z,6.70
2022-08-07T01:06:57.869Z,6.40
2022-08-07T01:07:57.865Z,6.50
2022-08-07T01:08:58.703Z,6.30
2022-08-07T01:10:06.668Z,6.20
2022-08-07T01:10:58.443Z,6.20
2022-08-07T01:12:27.623Z,6.30
2022-08-07T01:12:57.871Z,6.20
2022-08-07T01:13:57.874Z,6.20
2022-08-07T01:15:01.010Z,6.20
2022-08-07T01:16:05.162Z,6.40
2022-08-07T01:16:57.880Z,6.50
2022-08-07T01:17:57.872Z,6.50
2022-08-07T01:18:57.877Z,6.30
2022-08-07T01:19:57.879Z,6.90
2022-08-07T01:20:59.790Z,6.80
2022-08-07T01:21:57.882Z,6.60
2022-08-07T01:23:09.142Z,6.20
2022-08-07T01:23:57.879Z,6.70
2022-08-07T01:24:57.884Z,6.40
2022-08-07T01:25:57.884Z,6.60
2022-08-07T01:26:57.888Z,6.10
2022-08-07T01:27:57.890Z,6.20
2022-08-07T01:28:57.891Z,5.90
2022-08-07T01:29:57.889Z,6.20
2022-08-07T01:30:57.889Z,6.30
2022-08-07T01:31:59.348Z,6.30
2022-08-07T01:32:58.266Z,6.10
2022-08-07T01:33:57.890Z,6.50
2022-08-07T01:34:57.898Z,6.40
2022-08-07T01:36:06.238Z,6.20
2022-08-07T01:36:58.474Z,6.20
2022-08-07T01:37:57.895Z,6.40
2022-08-07T01:38:57.935Z,6.30
2022-08-07T01:39:57.943Z,7.30
2022-08-07T01:40:57.901Z,6.20
2022-08-07T01:42:37.146Z,6.30
2022-08-07T01:42:59.060Z,6.40
2022-08-07T01:43:57.905Z,6.60
2022-08-07T01:44:57.908Z,6.50
2022-08-07T01:45:58.728Z,6.30
2022-08-07T01:46:57.910Z,6.60
2022-08-07T01:48:19.126Z,6.80
2022-08-07T01:48:57.911Z,6.60
2022-08-07T01:49:57.907Z,6.80
2022-08-07T01:50:57.910Z,6.40
2022-08-07T01:52:02.015Z,6.30
2022-08-07T01:52:58.521Z,6.10
2022-08-07T01:54:00.763Z,6.10
2022-08-07T01:54:58.938Z,6.40
2022-08-07T01:55:57.915Z,6.10
2022-08-07T01:56:57.919Z,6.30
2022-08-07T01:58:05.653Z,6.40
2022-08-07T01:58:57.923Z,6.40
2022-08-07T01:59:57.919Z,6.50
2022-08-07T02:01:25.179Z,6.60
2022-08-07T02:02:00.205Z,6.50
2022-08-07T02:03:11.626Z,6.70
2022-08-07T02:03:58.028Z,6.50
2022-08-07T02:04:57.929Z,6.50
2022-08-07T02:05:59.915Z,6.30
2022-08-07T02:06:57.937Z,6.70
2022-08-07T02:07:57.929Z,6.40
2022-08-07T02:08:57.928Z,6.20
2022-08-07T02:09:58.536Z,6.60
2022-08-07T02:10:58.301Z,6.70
2022-08-07T02:12:03.310Z,6.20
2022-08-07T02:12:57.933Z,6.30
2022-08-07T02:14:02.313Z,6.60
2022-08-07T02:14:57.934Z,6.50
2022-08-07T02:15:57.940Z,6.50
2022-08-07T02:16:57.935Z,6.40
2022-08-07T02:17:57.935Z,6.50
2022-08-07T02:18:57.940Z,6.60
2022-08-07T02:20:07.508Z,6.50
2022-08-07T02:20:57.945Z,6.40
2022-08-07T02:21:58.757Z,6.50
2022-08-07T02:22:59.642Z,6.40
2022-08-07T02:23:57.945Z,6.80
2022-08-07T02:24:57.955Z,6.50
2022-08-07T02:26:31.729Z,6.30
2022-08-07T02:26:57.950Z,6.60
2022-08-07T02:27:57.944Z,6.70
2022-08-07T02:28:57.949Z,6.60
2022-08-07T02:29:57.949Z,6.90
2022-08-07T02:30:58.009Z,6.90
2022-08-07T02:31:57.948Z,6.80
2022-08-07T02:33:00.773Z,6.80
2022-08-07T02:34:04.213Z,6.60
2022-08-07T02:34:57.956Z,6.80
2022-08-07T02:36:29.774Z,6.60
2022-08-07T02:36:57.957Z,6.70
2022-08-07T02:37:57.954Z,7.00
2022-08-07T02:38:57.975Z,6.90
2022-08-07T02:40:02.291Z,7.00
2022-08-07T02:40:58.000Z,7.30
2022-08-07T02:41:57.956Z,6.70
2022-08-07T02:42:57.956Z,6.90
2022-08-07T02:43:57.958Z,7.10
2022-08-07T02:44:58.441Z,7.00
2022-08-07T02:46:02.390Z,6.60
2022-08-07T02:46:57.962Z,6.60
2022-08-07T02:47:59.070Z,6.90
2022-08-07T02:48:57.972Z,6.70
2022-08-07T02:49:59.832Z,6.80
2022-08-07T02:50:57.964Z,6.80
2022-08-07T02:51:57.978Z,7.10
2022-08-07T02:53:00.798Z,6.80
2022-08-07T02:53:57.967Z,6.90
2022-08-07T02:54:57.970Z,6.90
2022-08-07T02:56:03.587Z,6.80
2022-08-07T02:56:57.972Z,7.00
2022-08-07T02:57:57.975Z,7.10
2022-08-07T02:58:57.974Z,6.70
2022-08-07T03:00:01.234Z,7.10
2022-08-07T03:00:58.097Z,7.20
2022-08-07T03:02:01.184Z,6.80
2022-08-07T03:02:57.979Z,6.90
2022-08-07T03:03:57.978Z,7.00
2022-08-07T03:04:57.981Z,7.10
2022-08-07T03:05:57.984Z,6.70
2022-08-07T03:06:58.079Z,7.10
2022-08-07T03:08:07.482Z,6.90
2022-08-07T03:08:57.983Z,6.60
2022-08-07T03:09:57.982Z,7.00
2022-08-07T03:10:57.984Z,6.90
2022-08-07T03:12:02.785Z,6.70
2022-08-07T03:12:57.988Z,7.30
2022-08-07T03:14:01.633Z,7.00
2022-08-07T03:14:57.985Z,7.30
2022-08-07T03:15:58.649Z,6.90
2022-08-07T03:16:57.986Z,6.80
2022-08-07T03:17:57.987Z,6.80
2022-08-07T03:18:57.991Z,6.60
2022-08-07T03:19:57.990Z,6.80
2022-08-07T03:20:57.992Z,6.40
2022-08-07T03:21:58.701Z,6.30
2022-08-07T03:22:58.626Z,6.60
2022-08-07T03:24:19.039Z,6.80
2022-08-07T03:24:57.995Z,6.80
2022-08-07T03:25:59.784Z,6.50
2022-08-07T03:26:59.513Z,6.60
2022-08-07T03:28:09.771Z,6.80
2022-08-07T03:28:57.999Z,6.50
2022-08-07T03:29:57.996Z,6.80
2022-08-07T03:30:58.000Z,6.70
2022-08-07T03:31:58.000Z,6.30
2022-08-07T03:32:58.902Z,6.40
2022-08-07T03:33:58.002Z,6.10
2022-08-07T03:35:00.971Z,6.40
2022-08-07T03:35:58.007Z,6.20
2022-08-07T03:36:58.155Z,6.30
2022-08-07T03:37:58.006Z,6.80
2022-08-07T03:38:58.084Z,6.40
2022-08-07T03:40:13.275Z,6.20
2022-08-07T03:40:58.095Z,6.30
2022-08-07T03:41:58.005Z,6.60
2022-08-07T03:42:58.012Z,6.20
2022-08-07T03:43:58.015Z,6.60
2022-08-07T03:44:58.290Z,6.60
2022-08-07T03:45:58.012Z,6.60
2022-08-07T03:47:13.821Z,6.70
2022-08-07T03:47:58.081Z,6.70
2022-08-07T03:49:02.221Z,6.60
2022-08-07T03:49:58.010Z,6.10
2022-08-07T03:50:58.155Z,6.30
2022-08-07T03:52:01.449Z,6.60
2022-08-07T03:52:58.018Z,6.80
2022-08-07T03:54:33.283Z,6.70
2022-08-07T03:55:06.070Z,6.80
2022-08-07T03:56:03.976Z,6.70
2022-08-07T03:57:03.656Z,6.60
2022-08-07T03:58:33.841Z,6.80
2022-08-07T03:59:08.260Z,6.70
2022-08-07T04:00:01.745Z,6.70
2022-08-07T04:01:00.498Z,6.30
2022-08-07T04:01:58.093Z,6.10
2022-08-07T04:02:58.021Z,6.60
2022-08-07T04:03:58.023Z,6.00
2022-08-07T04:04:58.025Z,6.30
2022-08-07T04:05:58.834Z,6.10
2022-08-07T04:06:58.026Z,6.40
2022-08-07T04:07:58.025Z,6.30
2022-08-07T04:08:58.029Z,6.30
2022-08-07T04:09:58.026Z,6.20
2022-08-07T04:11:14.964Z,6.70
2022-08-07T04:12:15.586Z,6.50
2022-08-07T04:12:58.029Z,6.90
2022-08-07T04:14:09.369Z,6.50
2022-08-07T04:14:58.032Z,6.50
2022-08-07T04:15:58.037Z,6.80
2022-08-07T04:16:58.999Z,6.70
2022-08-07T04:18:32.001Z,6.80
2022-08-07T04:19:01.665Z,6.70
2022-08-07T04:19:58.035Z,6.70
2022-08-07T04:20:58.061Z,6.30
2022-08-07T04:21:59.295Z,6.60
2022-08-07T04:23:01.617Z,6.70
2022-08-07T04:24:07.417Z,6.50
2022-08-07T04:24:58.438Z,6.40
2022-08-07T04:25:58.039Z,6.30
2022-08-07T04:26:58.041Z,6.50
2022-08-07T04:27:59.112Z,6.50
2022-08-07T04:28:58.546Z,6.40
2022-08-07T04:30:02.125Z,6.50
2022-08-07T04:30:58.751Z,6.60
2022-08-07T04:32:03.293Z,6.40
2022-08-07T04:32:58.828Z,6.40
2022-08-07T04:33:58.041Z,6.50
2022-08-07T04:34:58.050Z,7.00
2022-08-07T04:35:58.054Z,6.30
2022-08-07T04:36:58.054Z,6.60
2022-08-07T04:38:03.332Z,6.70
2022-08-07T04:38:58.075Z,6.50
2022-08-07T04:39:58.162Z,6.80
2022-08-07T04:40:58.050Z,6.60
2022-08-07T04:41:58.051Z,6.50
2022-08-07T04:43:02.048Z,6.40
2022-08-07T04:44:11.890Z,6.50
2022-08-07T04:45:07.790Z,6.60
2022-08-07T04:46:01.785Z,6.50
2022-08-07T04:47:04.859Z,6.80
2022-08-07T04:48:06.003Z,6.60
2022-08-07T04:48:58.054Z,6.60
2022-08-07T04:50:04.014Z,6.90
2022-08-07T04:50:58.060Z,6.40
2022-08-07T04:51:58.058Z,6.40
2022-08-07T04:52:58.057Z,6.70
2022-08-07T04:54:01.380Z,6.30
2022-08-07T04:54:58.254Z,6.60
2022-08-07T04:58:11.028Z,6.40
2022-08-07T04:58:12.436Z,6.90
2022-08-07T04:58:13.821Z,6.60
2022-08-07T05:00:11.678Z,6.30
2022-08-07T05:00:58.119Z,6.80
2022-08-07T05:01:58.066Z,6.20
2022-08-07T05:02:58.063Z,6.30
2022-08-07T05:04:06.440Z,6.30
2022-08-07T05:04:58.073Z,6.10
2022-08-07T05:05:58.063Z,6.20
2022-08-07T05:06:58.065Z,6.20
2022-08-07T05:07:58.069Z,6.00
2022-08-07T05:09:01.368Z,6.10
2022-08-07T05:09:58.073Z,6.00
2022-08-07T05:10:58.347Z,6.10
2022-08-07T05:12:02.521Z,6.20
2022-08-07T05:13:09.774Z,6.50
2022-08-07T05:14:55.792Z,6.20
2022-08-07T05:15:03.259Z,6.10
2022-08-07T05:15:58.076Z,6.10
2022-08-07T05:16:58.075Z,5.60
2022-08-07T05:17:58.329Z,6.00
2022-08-07T05:18:58.078Z,6.10
2022-08-07T05:19:58.075Z,6.00
2022-08-07T05:20:58.077Z,6.00
2022-08-07T05:21:59.885Z,5.80
2022-08-07T05:22:58.078Z,5.90
2022-08-07T05:23:58.078Z,6.20
2022-08-07T05:24:59.580Z,5.90
2022-08-07T05:26:13.050Z,5.90
2022-08-07T05:26:58.081Z,5.60
2022-08-07T05:28:02.856Z,5.80
2022-08-07T05:28:58.086Z,5.90
2022-08-07T05:29:58.080Z,6.00
2022-08-07T05:30:58.086Z,5.80
2022-08-07T05:31:58.082Z,6.30
2022-08-07T05:32:58.087Z,6.10
2022-08-07T05:34:04.924Z,6.30
2022-08-07T05:34:58.084Z,6.00
2022-08-07T05:35:58.091Z,6.00
2022-08-07T05:36:58.211Z,6.00
2022-08-07T05:38:08.378Z,6.00
2022-08-07T05:39:08.678Z,5.70
2022-08-07T05:40:16.708Z,5.80
2022-08-07T05:40:58.147Z,6.10
2022-08-07T05:42:01.862Z,6.00
2022-08-07T05:42:58.094Z,6.10
2022-08-07T05:44:12.255Z,6.30
2022-08-07T05:45:14.559Z,6.00
2022-08-07T05:45:58.098Z,5.90
2022-08-07T05:46:58.094Z,6.20
2022-08-07T05:48:01.114Z,5.70
2022-08-07T05:48:59.678Z,5.90
2022-08-07T05:49:58.098Z,5.60
2022-08-07T05:50:58.104Z,5.90
2022-08-07T05:51:58.101Z,5.80
2022-08-07T05:52:58.099Z,5.50
2022-08-07T05:54:12.143Z,5.60
2022-08-07T05:54:59.265Z,5.30
2022-08-07T05:56:03.869Z,5.70
2022-08-07T05:56:58.764Z,5.20
2022-08-07T05:57:58.106Z,5.60
2022-08-07T05:58:58.102Z,5.30
2022-08-07T05:59:58.392Z,5.20
2022-08-07T06:00:58.105Z,5.00
2022-08-07T06:01:58.205Z,4.90
2022-08-07T06:02:58.106Z,5.00
2022-08-07T06:04:00.920Z,4.70
2022-08-07T06:04:58.108Z,5.20
2022-08-07T06:05:58.110Z,5.20
2022-08-07T06:07:03.987Z,5.30
2022-08-07T06:08:13.869Z,5.40
2022-08-07T06:08:58.262Z,5.50
2022-08-07T06:10:05.209Z,5.20
2022-08-07T06:10:58.114Z,5.10
2022-08-07T06:11:58.118Z,5.40
2022-08-07T06:12:58.117Z,5.70
2022-08-07T06:14:12.853Z,5.80
2022-08-07T06:15:05.088Z,5.60
2022-08-07T06:15:58.168Z,5.50
2022-08-07T06:16:58.122Z,5.40
2022-08-07T06:17:58.120Z,5.60
2022-08-07T06:18:58.129Z,5.60
2022-08-07T06:20:03.990Z,5.40
2022-08-07T06:22:15.646Z,5.50
2022-08-07T06:22:17.020Z,5.60
2022-08-07T06:23:02.463Z,5.70
2022-08-07T06:24:52.887Z,5.70
2022-08-07T06:25:01.559Z,6.20
2022-08-07T06:25:58.132Z,5.80
2022-08-07T06:26:58.157Z,5.70
2022-08-07T06:28:01.102Z,5.90
2022-08-07T06:28:58.996Z,6.00
2022-08-07T06:29:58.133Z,5.70
2022-08-07T06:30:58.624Z,5.60
2022-08-07T06:31:58.132Z,5.20
2022-08-07T06:32:58.134Z,5.10
2022-08-07T06:33:58.140Z,5.30
2022-08-07T06:34:58.139Z,5.10
2022-08-07T06:36:11.956Z,5.80
2022-08-07T06:36:58.141Z,5.40
2022-08-07T06:37:58.141Z,5.40
2022-08-07T06:40:13.081Z,5.20
2022-08-07T06:40:18.023Z,5.20
2022-08-07T06:40:58.214Z,5.40
2022-08-07T06:42:02.066Z,5.60
2022-08-07T06:42:58.145Z,5.50
2022-08-07T06:44:01.427Z,5.50
2022-08-07T06:44:58.147Z,5.90
2022-08-07T06:46:00.825Z,5.90
2022-08-07T06:47:10.567Z,5.40
2022-08-07T06:47:59.537Z,5.80
2022-08-07T06:48:58.158Z,5.50
2022-08-07T06:49:58.966Z,5.30
2022-08-07T06:50:58.153Z,5.50
2022-08-07T06:52:02.846Z,5.60
2022-08-07T06:52:58.156Z,5.40
2022-08-07T06:55:28.554Z,5.70
2022-08-07T06:55:33.208Z,5.40
2022-08-07T06:56:00.828Z,5.50
2022-08-07T06:56:58.159Z,5.80
2022-08-07T06:57:58.200Z,5.30
2022-08-07T07:00:13.715Z,5.30
2022-08-07T07:00:14.271Z,4.80
2022-08-07T07:00:58.164Z,5.40
2022-08-07T07:01:58.287Z,5.10
2022-08-07T07:03:01.154Z,5.20
2022-08-07T07:04:08.294Z,5.40
2022-08-07T07:04:58.172Z,5.60
2022-08-07T07:06:02.995Z,5.30
2022-08-07T07:07:01.009Z,5.20
2022-08-07T07:08:00.000Z,5.30
2022-08-07T07:08:58.275Z,5.20
2022-08-07T07:09:58.175Z,5.20
2022-08-07T07:10:59.040Z,4.90
2022-08-07T07:12:09.798Z,5.00
2022-08-07T07:12:58.177Z,5.20
2022-08-07T07:14:02.266Z,5.50
2022-08-07T07:14:58.182Z,5.20
2022-08-07T07:15:58.182Z,5.20
2022-08-07T07:16:58.186Z,4.90
2022-08-07T07:17:58.215Z,5.00
2022-08-07T07:18:58.186Z,5.00
2022-08-07T07:19:59.119Z,5.20
2022-08-07T07:20:58.188Z,5.10
2022-08-07T07:22:05.391Z,5.30
2022-08-07T07:24:08.821Z,5.40
2022-08-07T07:24:09.835Z,5.40
2022-08-07T07:25:14.254Z,5.40
2022-08-07T07:26:33.002Z,5.40
2022-08-07T07:26:58.200Z,5.50
2022-08-07T07:30:26.565Z,5.80
2022-08-07T07:33:07.823Z,5.60
2022-08-07T07:34:07.365Z,5.60
2022-08-07T07:35:07.365Z,5.50
2022-08-07T07:36:12.923Z,5.30
2022-08-07T07:37:21.665Z,5.10
2022-08-07T07:38:07.563Z,5.20
2022-08-07T07:39:07.426Z,5.10
2022-08-07T07:40:10.205Z,4.70
2022-08-07T07:41:08.948Z,4.90
2022-08-07T07:42:13.693Z,5.00
2022-08-07T07:43:15.338Z,4.80
2022-08-07T07:44:17.917Z,4.90
2022-08-07T07:45:07.385Z,4.80
2022-08-07T07:46:36.913Z,4.60
2022-08-07T07:47:14.343Z,4.90
2022-08-07T07:48:07.390Z,4.70
2022-08-07T07:50:29.816Z,4.70
2022-08-07T07:50:34.518Z,4.70
2022-08-07T07:51:07.940Z,4.80
2022-08-07T07:52:07.405Z,4.70
2022-08-07T07:53:20.188Z,4.70
2022-08-07T07:54:07.408Z,4.80
2022-08-07T07:55:07.414Z,4.70
2022-08-07T07:56:07.429Z,4.80
2022-08-07T07:57:07.427Z,4.60
2022-08-07T07:58:07.430Z,4.30
2022-08-07T07:59:07.426Z,4.30
2022-08-07T08:00:07.431Z,4.20
2022-08-07T08:02:01.849Z,4.30
2022-08-07T08:02:10.698Z,4.20
2022-08-07T08:03:08.397Z,4.40
2022-08-07T08:04:10.143Z,4.50
2022-08-07T08:05:11.534Z,4.60
2022-08-07T08:06:07.464Z,4.50
2022-08-07T08:07:07.647Z,4.40
2022-08-07T08:08:07.482Z,4.80
2022-08-07T08:09:08.118Z,4.90
2022-08-07T08:10:07.487Z,4.80
2022-08-07T08:11:08.445Z,4.70
2022-08-07T08:12:07.498Z,4.90
2022-08-07T08:13:10.404Z,4.80
2022-08-07T08:14:07.597Z,4.90
2022-08-07T08:15:07.526Z,4.90
2022-08-07T08:16:07.532Z,4.50
2022-08-07T08:17:55.676Z,4.80
2022-08-07T08:18:17.624Z,4.50
2022-08-07T08:19:18.170Z,4.10
2022-08-07T08:20:18.170Z,4.40
2022-08-07T08:21:07.653Z,4.20
2022-08-07T08:22:07.910Z,4.20
2022-08-07T08:23:10.226Z,4.40
2022-08-07T08:28:37.662Z,3.80
2022-08-07T08:29:26.827Z,2.10
2022-08-07T08:30:26.840Z,2.20
2022-08-07T08:31:30.198Z,2.30
2022-08-07T08:32:38.161Z,2.50
2022-08-07T08:33:28.922Z,2.20
2022-08-07T08:34:29.171Z,2.10
2022-08-07T08:35:28.751Z,2.00
2022-08-07T08:36:29.933Z,2.40
2022-08-07T08:38:01.507Z,2.20
2022-08-07T08:38:30.087Z,2.40
2022-08-07T08:39:39.532Z,2.50
2022-08-07T08:40:28.774Z,2.40
2022-08-07T08:41:31.357Z,2.30
2022-08-07T08:42:26.973Z,2.60
2022-08-07T08:43:41.878Z,2.70
2022-08-07T08:44:29.476Z,2.70
2022-08-07T08:45:58.350Z,2.70
2022-08-07T08:46:27.017Z,3.00
2022-08-07T08:48:10.765Z,3.00
2022-08-07T08:49:09.789Z,3.40
2022-08-07T08:50:09.603Z,5.00
2022-08-07T08:51:14.570Z,4.90
2022-08-07T08:52:13.729Z,3.00
2022-08-07T08:53:09.626Z,3.00
2022-08-07T08:54:09.635Z,5.30
2022-08-07T08:56:59.809Z,5.20
2022-08-07T08:57:59.805Z,5.30
2022-08-07T08:58:59.818Z,5.00
2022-08-07T09:00:00.097Z,4.90
2022-08-07T09:02:35.111Z,5.10
2022-08-07T09:03:47.661Z,5.20
2022-08-07T09:06:11.326Z,4.80
2022-08-07T09:07:11.321Z,5.00
2022-08-07T09:08:10.826Z,4.80
2022-08-07T09:10:48.493Z,5.40
2022-08-07T09:11:53.332Z,4.90
2022-08-07T09:12:53.605Z,5.20
2022-08-07T09:13:48.514Z,5.50
2022-08-07T09:14:51.011Z,5.40
2022-08-07T09:16:23.995Z,5.20
2022-08-07T09:16:48.534Z,5.10
2022-08-07T09:17:59.226Z,5.20
2022-08-07T09:18:53.145Z,5.40
2022-08-07T09:19:52.684Z,5.20
2022-08-07T09:20:58.651Z,5.10
2022-08-07T09:22:23.102Z,5.30
2022-08-07T09:24:30.646Z,5.30
2022-08-07T09:24:33.900Z,5.40
2022-08-07T09:24:59.381Z,5.00
2022-08-07T09:25:54.426Z,5.00
2022-08-07T09:26:51.113Z,4.80
2022-08-07T09:28:00.375Z,4.70
2022-08-07T09:30:00.814Z,5.10
2022-08-07T09:30:06.698Z,5.10
2022-08-07T09:30:52.898Z,5.20
2022-08-07T09:31:49.464Z,5.20
2022-08-07T09:32:48.635Z,4.80
2022-08-07T09:33:57.165Z,4.60
2022-08-07T09:34:54.046Z,4.70
2022-08-07T09:36:05.339Z,5.20
2022-08-07T09:37:56.270Z,5.20
2022-08-07T09:38:56.264Z,5.40
2022-08-07T09:39:56.355Z,5.70
2022-08-07T09:40:56.285Z,5.60
2022-08-07T09:42:03.218Z,4.70
2022-08-07T09:42:56.290Z,5.80
2022-08-07T09:44:06.872Z,5.70
2022-08-07T09:47:24.790Z,5.30
2022-08-07T09:47:25.852Z,5.50
2022-08-07T09:47:52.427Z,5.20
2022-08-07T09:48:01.429Z,4.70
2022-08-07T09:50:02.316Z,5.00
2022-08-07T09:50:43.886Z,4.80
2022-08-07T09:52:16.132Z,4.90
2022-08-07T09:52:43.900Z,5.00
2022-08-07T09:53:55.131Z,5.00
2022-08-07T09:56:03.932Z,5.00
2022-08-07T09:57:29.221Z,4.80
2022-08-07T09:58:32.291Z,4.80
2022-08-07T09:59:35.805Z,5.00
2022-08-07T10:00:29.854Z,4.60
2022-08-07T10:01:51.522Z,4.60
2022-08-07T10:02:29.660Z,4.60
2022-08-07T10:04:07.240Z,4.60
2022-08-07T10:04:32.829Z,4.60
2022-08-07T10:05:58.293Z,4.80
2022-08-07T10:06:29.166Z,4.60
2022-08-07T10:07:31.634Z,4.50
2022-08-07T10:08:29.155Z,4.60
2022-08-07T10:09:34.303Z,4.60
2022-08-07T10:10:30.054Z,5.00
2022-08-07T10:12:02.143Z,5.00
2022-08-07T10:12:29.127Z,5.20
2022-08-07T10:13:55.265Z,4.80
2022-08-07T10:14:30.381Z,5.50
2022-08-07T10:15:29.142Z,5.50
2022-08-07T10:16:29.143Z,5.30
2022-08-07T10:17:33.693Z,5.50
2022-08-07T10:18:29.151Z,5.50
2022-08-07T10:19:30.074Z,5.60
2022-08-07T10:20:31.856Z,5.70
2022-08-07T10:22:12.609Z,5.60
2022-08-07T10:22:33.532Z,5.30
2022-08-07T10:24:06.480Z,5.70
2022-08-07T10:24:29.181Z,5.70
2022-08-07T10:25:42.298Z,5.50
2022-08-07T10:26:29.188Z,5.50
2022-08-07T10:27:30.292Z,5.50
2022-08-07T10:28:29.197Z,5.20
2022-08-07T10:29:30.306Z,5.40
2022-08-07T10:30:29.209Z,5.60
2022-08-07T10:31:31.389Z,5.50
2022-08-07T10:32:37.135Z,4.90
2022-08-07T10:34:05.645Z,5.00
2022-08-07T10:34:32.173Z,5.00
2022-08-07T10:35:53.654Z,4.80
2022-08-07T10:36:30.137Z,5.10
2022-08-07T10:38:00.148Z,5.10
2022-08-07T10:38:36.121Z,5.20
2022-08-07T10:39:41.312Z,5.10
2022-08-07T10:40:30.027Z,5.30
2022-08-07T10:41:46.986Z,5.00
2022-08-07T10:42:31.237Z,5.60
2022-08-07T10:43:34.159Z,5.50
2022-08-07T10:44:38.710Z,5.50
2022-08-07T10:46:29.278Z,5.10
2022-08-07T10:47:52.892Z,5.60
2022-08-07T10:48:34.589Z,5.50
2022-08-07T10:49:49.337Z,5.40
2022-08-07T10:50:29.295Z,5.40
2022-08-07T10:51:39.631Z,5.90
2022-08-07T10:52:33.632Z,5.60
2022-08-07T10:53:43.929Z,5.40
2022-08-07T10:54:29.313Z,5.40
2022-08-07T10:55:37.864Z,5.30
2022-08-07T10:56:31.653Z,5.30
2022-08-07T10:58:11.876Z,5.30
2022-08-07T10:59:13.610Z,5.20
2022-08-07T11:00:36.675Z,5.40
2022-08-07T11:01:12.333Z,5.30
2022-08-07T11:02:33.186Z,5.40
2022-08-07T11:03:12.640Z,5.40
2022-08-07T11:04:31.653Z,5.50
2022-08-07T11:05:11.901Z,5.40
2022-08-07T11:06:11.911Z,5.40
2022-08-07T11:07:24.891Z,5.20
2022-08-07T11:08:11.953Z,5.20
2022-08-07T11:09:11.921Z,5.10
2022-08-07T11:10:11.939Z,5.20
2022-08-07T11:11:11.932Z,5.30
2022-08-07T11:12:11.940Z,5.40
2022-08-07T11:13:42.424Z,5.20
2022-08-07T11:14:44.340Z,5.30
2022-08-07T11:15:14.894Z,5.40
2022-08-07T11:16:11.962Z,5.30
2022-08-07T11:18:04.696Z,5.50
2022-08-07T11:19:04.530Z,5.40
2022-08-07T11:20:04.539Z,5.30
2022-08-07T11:21:04.539Z,5.10
2022-08-07T11:22:04.544Z,4.80
2022-08-07T11:23:04.552Z,5.00
2022-08-07T11:24:04.555Z,5.00
2022-08-07T11:25:06.841Z,5.20
2022-08-07T11:26:07.201Z,5.00
2022-08-07T11:27:04.568Z,5.10
2022-08-07T11:28:04.874Z,4.90
2022-08-07T11:29:05.521Z,4.90
2022-08-07T11:30:17.863Z,4.70
2022-08-07T11:31:08.781Z,5.00
2022-08-07T11:32:04.591Z,4.90
2022-08-07T11:33:07.997Z,5.00
2022-08-07T11:34:04.600Z,5.00
2022-08-07T11:35:05.418Z,5.00
2022-08-07T11:36:08.147Z,5.00
2022-08-07T11:37:04.614Z,5.00
2022-08-07T11:38:12.524Z,4.90
2022-08-07T11:39:04.657Z,4.80
2022-08-07T11:40:04.711Z,4.90
2022-08-07T11:41:04.645Z,5.00
2022-08-07T11:42:04.658Z,5.10
2022-08-07T11:43:04.647Z,5.00
2022-08-07T11:44:12.525Z,5.00
2022-08-07T11:45:04.652Z,4.90
2022-08-07T11:46:04.662Z,5.00
2022-08-07T11:47:04.671Z,5.20
2022-08-07T11:48:13.716Z,4.70
2022-08-07T11:49:50.696Z,4.90
2022-08-07T11:50:30.545Z,5.00
2022-08-07T11:51:04.683Z,4.90
2022-08-07T11:52:04.691Z,5.00
2022-08-07T11:53:05.055Z,5.30
2022-08-07T11:54:10.120Z,5.30
2022-08-07T11:55:09.042Z,5.40
2022-08-07T11:56:24.998Z,5.10
2022-08-07T11:57:04.715Z,5.30
2022-08-07T11:58:04.785Z,4.90
2022-08-07T11:59:04.728Z,5.00
2022-08-07T12:00:12.561Z,4.90
2022-08-07T12:01:06.637Z,5.10
2022-08-07T12:02:04.824Z,5.10
2022-08-07T12:03:04.907Z,4.60
2022-08-07T12:04:04.760Z,4.40
2022-08-07T12:05:08.981Z,4.70
2022-08-07T12:06:39.140Z,4.70
2022-08-07T12:07:09.119Z,4.90
2022-08-07T12:08:04.782Z,4.90
2022-08-07T12:09:04.788Z,4.90
2022-08-07T12:10:05.930Z,4.80
2022-08-07T12:11:20.023Z,4.90
2022-08-07T12:12:09.392Z,4.50
2022-08-07T12:13:11.661Z,4.20
2022-08-07T12:14:04.823Z,4.10
2022-08-07T12:15:04.825Z,4.70
2022-08-07T12:16:06.105Z,4.90
2022-08-07T12:17:04.839Z,4.60
2022-08-07T12:18:08.146Z,4.60
2022-08-07T12:19:04.855Z,4.10
2022-08-07T12:20:09.530Z,3.80
2022-08-07T12:21:04.870Z,3.80
2022-08-07T12:22:38.655Z,4.60
2022-08-07T12:23:09.100Z,4.80
2022-08-07T12:24:36.901Z,4.60
2022-08-07T12:25:07.688Z,4.80
2022-08-07T12:26:28.640Z,4.60
2022-08-07T12:27:04.913Z,4.50
2022-08-07T12:28:09.414Z,4.10
2022-08-07T12:29:04.927Z,4.40
2022-08-07T12:30:04.935Z,4.70
2022-08-07T12:31:04.947Z,4.80
2022-08-07T12:32:05.811Z,4.40
2022-08-07T12:33:18.718Z,4.70
2022-08-07T12:34:04.979Z,4.70
2022-08-07T12:35:07.302Z,5.00
2022-08-07T12:36:05.651Z,4.70
2022-08-07T12:37:08.315Z,4.60
2022-08-07T12:38:11.596Z,4.10
2022-08-07T12:39:43.026Z,4.20
2022-08-07T12:40:05.061Z,4.20
2022-08-07T12:41:05.083Z,4.00
2022-08-07T12:42:05.034Z,4.40
2022-08-07T12:43:09.209Z,4.20
2022-08-07T12:44:06.411Z,4.50
2022-08-07T12:45:06.597Z,4.40
2022-08-07T12:46:05.067Z,4.50
2022-08-07T12:47:06.284Z,4.20
2022-08-07T12:48:05.086Z,4.00
2022-08-07T12:49:10.272Z,4.30
2022-08-07T12:50:39.537Z,4.30
2022-08-07T12:51:17.406Z,4.40
2022-08-07T12:52:12.162Z,4.30
2022-08-07T12:53:17.908Z,4.40
2022-08-07T12:54:38.152Z,4.50
2022-08-07T12:55:09.646Z,4.60
2022-08-07T12:56:09.338Z,4.50
2022-08-07T12:57:09.810Z,4.20
2022-08-07T12:58:05.168Z,4.30
2022-08-07T12:59:05.185Z,3.90
2022-08-07T13:00:05.190Z,4.40
2022-08-07T13:01:05.240Z,4.10
2022-08-07T13:02:09.903Z,4.10
2022-08-07T13:03:06.765Z,4.10
2022-08-07T13:04:05.562Z,4.50
2022-08-07T13:05:06.457Z,4.70
2022-08-07T13:06:21.641Z,4.70
2022-08-07T13:07:05.250Z,4.70
2022-08-07T13:08:14.029Z,4.50
2022-08-07T13:09:12.555Z,4.80
2022-08-07T13:10:22.029Z,4.50
2022-08-07T13:11:05.283Z,4.80
2022-08-07T13:12:10.259Z,4.40
2022-08-07T13:13:05.306Z,4.90
2022-08-07T13:14:05.313Z,4.90
2022-08-07T13:15:05.316Z,4.90
2022-08-07T13:16:05.331Z,5.00
2022-08-07T13:17:05.336Z,4.80
2022-08-07T13:18:05.347Z,4.90
2022-08-07T13:19:05.353Z,4.70
2022-08-07T13:20:05.362Z,4.60
2022-08-07T13:21:05.366Z,4.70
2022-08-07T13:22:19.478Z,4.60
2022-08-07T13:23:09.896Z,4.90
2022-08-07T13:24:05.400Z,5.00
2022-08-07T13:25:06.001Z,4.90
2022-08-07T13:26:05.411Z,4.90
2022-08-07T13:27:05.619Z,5.20
2022-08-07T13:28:14.012Z,5.00
2022-08-07T13:29:05.436Z,5.00
2022-08-07T13:30:05.523Z,5.00
2022-08-07T13:31:06.352Z,4.90
2022-08-07T13:32:23.564Z,4.80
2022-08-07T13:33:05.469Z,5.00
2022-08-07T13:34:29.851Z,4.60
2022-08-07T13:35:08.727Z,4.30
2022-08-07T13:36:05.901Z,4.30
2022-08-07T13:37:10.813Z,4.40
2022-08-07T13:38:05.513Z,4.40
2022-08-07T13:39:12.965Z,4.70
2022-08-07T13:40:36.275Z,4.60
2022-08-07T13:41:05.600Z,4.50
2022-08-07T13:42:05.550Z,4.50